Time;durP1;ratioP1;P1;durP2;ratioP2;P2;SDS_P1;SDS_P2;PMS_P1;PMS_P2;Temp;Humidity;BMP_temperature;BMP_pressure;BME280_temperature;BME280_humidity;BME280_pressure;Samples;Min_cycle;Max_cycle;Signal;HPM_P1;HPM_P2
2021/05/20 00:01:34;;;;;;;1.50;0.88;;;;;;;18.77;59.64;101466.94;5066523;28;20033;-66
2021/05/20 00:03:59;;;;;;;1.92;0.90;;;;;;;18.78;59.59;101463.31;5073369;28;20464;-66
2021/05/20 00:06:27;;;;;;;1.65;0.80;;;;;;;18.79;59.68;101460.47;5068685;28;20064;-66
2021/05/20 00:08:53;;;;;;;1.70;0.90;;;;;;;18.78;59.42;101464.13;5069553;28;20120;-66
2021/05/20 00:11:18;;;;;;;2.22;1.10;;;;;;;18.78;59.48;101450.84;5052975;28;20123;-66
2021/05/20 00:13:43;;;;;;;1.65;0.80;;;;;;;18.78;59.67;101447.38;5034157;28;20037;-66
2021/05/20 00:16:09;;;;;;;1.17;0.73;;;;;;;18.78;59.53;101448.19;5070627;28;20467;-66
2021/05/20 00:18:34;;;;;;;1.02;0.70;;;;;;;18.79;59.16;101454.34;5068419;28;20509;-68
2021/05/20 00:21:00;;;;;;;2.40;0.90;;;;;;;18.78;59.45;101460.66;5067204;28;20458;-66
2021/05/20 00:23:25;;;;;;;2.38;0.88;;;;;;;18.79;59.50;101457.00;5069471;28;20036;-66
2021/05/20 00:25:51;;;;;;;2.50;1.00;;;;;;;18.80;59.29;101445.34;5070957;28;20379;-66
2021/05/20 00:28:16;;;;;;;1.50;0.80;;;;;;;18.79;59.47;101443.72;5049371;28;20575;-66
2021/05/20 00:30:42;;;;;;;3.70;0.90;;;;;;;18.79;59.20;101449.03;5050212;28;20179;-66
2021/05/20 00:33:07;;;;;;;1.42;0.85;;;;;;;18.80;59.20;101440.03;5071145;28;20032;-66
2021/05/20 00:35:33;;;;;;;3.13;1.10;;;;;;;18.78;59.46;101429.59;5070352;28;20140;-66
2021/05/20 00:37:58;;;;;;;1.98;0.80;;;;;;;18.78;59.35;101429.59;5069768;28;20097;-66
2021/05/20 00:40:24;;;;;;;2.75;1.00;;;;;;;18.77;59.59;101421.75;5066735;28;20037;-66
2021/05/20 00:42:49;;;;;;;2.08;0.90;;;;;;;18.79;59.36;101422.44;5068125;28;20032;-66
2021/05/20 00:45:15;;;;;;;1.00;0.70;;;;;;;18.77;59.38;101413.78;5043918;28;20053;-66
2021/05/20 00:47:41;;;;;;;2.75;1.05;;;;;;;18.78;59.18;101405.66;5057601;28;20084;-66
2021/05/20 00:50:09;;;;;;;2.08;0.90;;;;;;;18.77;59.44;101397.84;5050394;28;20025;-66
2021/05/20 00:52:35;;;;;;;2.70;1.27;;;;;;;18.79;59.11;101393.19;5060136;28;20040;-66
2021/05/20 00:55:04;;;;;;;1.52;0.70;;;;;;;18.79;59.25;101385.22;5066074;28;20045;-66
2021/05/20 00:57:29;;;;;;;1.42;0.80;;;;;;;18.78;58.90;101379.09;5062556;28;20086;-66
2021/05/20 01:00:01;;;;;;;1.92;0.80;;;;;;;18.78;59.45;101373.78;5065005;28;20040;-66
2021/05/20 01:02:27;;;;;;;1.38;0.80;;;;;;;18.78;59.05;101373.78;5066353;28;20039;-66
2021/05/20 01:04:52;;;;;;;1.50;0.77;;;;;;;18.78;59.26;101364.97;5049134;28;20468;-66
2021/05/20 01:07:18;;;;;;;2.05;0.90;;;;;;;18.78;59.32;101368.47;5059410;28;20444;-66
2021/05/20 01:09:43;;;;;;;2.30;0.80;;;;;;;18.77;59.09;101357.97;5045928;28;20041;-66
2021/05/20 01:12:10;;;;;;;2.17;0.90;;;;;;;18.78;58.88;101357.00;5062751;28;20040;-66
2021/05/20 01:14:42;;;;;;;1.23;0.85;;;;;;;18.76;59.09;101354.50;5052286;28;20025;-67
2021/05/20 01:17:07;;;;;;;1.25;0.77;;;;;;;18.78;58.81;101352.50;5062157;28;20097;-66
2021/05/20 01:19:37;;;;;;;1.88;0.90;;;;;;;18.77;59.29;101348.16;5047999;28;20119;-66
2021/05/20 01:22:03;;;;;;;4.10;1.17;;;;;;;18.78;58.98;101341.06;5061648;28;20106;-67
2021/05/20 01:24:28;;;;;;;1.80;0.80;;;;;;;18.79;59.03;101337.38;5051837;28;20486;-66
2021/05/20 01:26:54;;;;;;;2.63;0.93;;;;;;;18.78;59.18;101327.75;5045958;28;20040;-66
2021/05/20 01:29:20;;;;;;;1.85;0.80;;;;;;;18.76;58.95;101327.91;5063850;28;20032;-68
2021/05/20 01:31:45;;;;;;;2.47;0.90;;;;;;;18.76;58.94;101325.25;5064799;28;20155;-68
2021/05/20 01:34:11;;;;;;;1.77;0.80;;;;;;;18.75;58.93;101315.63;5051220;28;20062;-66
2021/05/20 01:36:36;;;;;;;2.63;0.90;;;;;;;18.77;59.05;101312.78;5047223;28;20044;-66
2021/05/20 01:39:03;;;;;;;2.28;1.00;;;;;;;18.77;59.05;101312.78;5060015;28;20059;-66
2021/05/20 01:41:29;;;;;;;2.22;0.90;;;;;;;18.77;58.69;101304.81;5067076;28;20031;-66
2021/05/20 01:43:54;;;;;;;3.13;1.00;;;;;;;18.77;58.75;101296.84;5065210;28;20143;-66
2021/05/20 01:46:20;;;;;;;1.60;0.93;;;;;;;18.76;59.19;101297.84;5054991;28;20049;-66
2021/05/20 01:48:48;;;;;;;2.35;0.82;;;;;;;18.77;58.97;101295.00;5058555;28;20079;-67
2021/05/20 01:51:16;;;;;;;1.25;0.73;;;;;;;18.75;58.84;101286.41;5041212;28;20036;-66
2021/05/20 01:53:44;;;;;;;1.85;0.80;;;;;;;18.75;58.85;101283.75;5064758;28;20431;-66
2021/05/20 01:56:12;;;;;;;2.45;0.90;;;;;;;18.75;59.15;101282.91;5062573;28;20028;-66
2021/05/20 01:58:38;;;;;;;1.70;0.80;;;;;;;18.76;58.76;101284.56;5067926;28;20047;-66
2021/05/20 02:01:04;;;;;;;1.90;1.00;;;;;;;18.75;58.83;101280.25;5051462;28;20032;-66
2021/05/20 02:03:30;;;;;;;2.05;0.90;;;;;;;18.77;58.87;101280.91;5068148;28;20056;-66
2021/05/20 02:06:02;;;;;;;1.77;0.80;;;;;;;18.77;59.00;101278.25;5064722;28;20048;-66
2021/05/20 02:08:31;;;;;;;3.22;1.27;;;;;;;18.76;58.77;101260.66;5052931;28;20033;-67
2021/05/20 02:10:57;;;;;;;3.60;0.90;;;;;;;18.78;58.78;101262.16;5065855;28;20045;-66
2021/05/20 02:13:23;;;;;;;2.03;1.05;;;;;;;18.76;58.53;101253.50;5049559;28;20558;-66
2021/05/20 02:15:49;;;;;;;2.00;1.00;;;;;;;18.77;58.78;101246.34;5041261;28;20048;-66
2021/05/20 02:18:15;;;;;;;1.58;0.80;;;;;;;18.76;58.69;101242.88;5055681;28;20396;-67
2021/05/20 02:20:40;;;;;;;2.85;0.85;;;;;;;18.76;58.74;101237.53;5059154;28;20029;-67
2021/05/20 02:23:07;;;;;;;1.38;0.80;;;;;;;18.76;58.69;101234.88;5032794;28;20028;-67
2021/05/20 02:25:32;;;;;;;1.98;0.90;;;;;;;18.76;58.55;101220.78;5031702;28;20069;-66
2021/05/20 02:27:59;;;;;;;2.47;0.90;;;;;;;18.76;58.43;101234.88;5065759;28;20064;-66
2021/05/20 02:30:26;;;;;;;2.17;1.05;;;;;;;18.76;58.69;101220.78;5043836;28;20046;-67
2021/05/20 02:32:51;;;;;;;2.38;0.90;;;;;;;18.76;58.55;101213.63;5062998;28;20040;-66
2021/05/20 02:35:17;;;;;;;1.52;0.82;;;;;;;18.75;58.35;101198.69;5043006;28;20442;-66
2021/05/20 02:37:45;;;;;;;2.22;1.02;;;;;;;18.75;58.40;101200.53;5065503;28;20054;-66
2021/05/20 02:40:11;;;;;;;1.77;0.88;;;;;;;18.75;58.24;101195.22;5065929;28;20802;-66
2021/05/20 02:42:38;;;;;;;1.48;0.75;;;;;;;18.74;58.25;101186.41;5063252;28;20036;-66
2021/05/20 02:45:07;;;;;;;4.00;1.08;;;;;;;18.75;58.42;101177.44;5062737;28;20119;-66
2021/05/20 02:47:32;;;;;;;2.22;0.88;;;;;;;18.74;58.13;101162.50;5063292;28;20070;-66
2021/05/20 02:49:58;;;;;;;1.65;0.90;;;;;;;18.74;58.21;101156.34;5033072;28;20063;-66
2021/05/20 02:52:23;;;;;;;3.55;1.20;;;;;;;18.74;57.99;101148.38;5067131;28;20039;-66
2021/05/20 02:54:49;;;;;;;3.15;0.90;;;;;;;18.73;57.92;101136.94;5054692;28;20467;-68
2021/05/20 02:57:14;;;;;;;3.15;1.05;;;;;;;18.72;58.19;101115.84;5050570;28;20032;-66
2021/05/20 02:59:40;;;;;;;2.63;0.90;;;;;;;18.72;58.13;101111.38;5021886;28;20519;-66
2021/05/20 03:02:07;;;;;;;1.80;0.90;;;;;;;18.73;57.95;101098.91;5064153;28;20041;-66
2021/05/20 03:04:36;;;;;;;1.98;1.00;;;;;;;18.73;58.17;101090.94;5067449;28;20490;-66
2021/05/20 03:07:03;;;;;;;1.75;0.80;;;;;;;18.73;57.95;101089.09;5055654;28;20064;-66
2021/05/20 03:09:28;;;;;;;2.90;1.20;;;;;;;18.73;58.13;101080.28;5055942;28;20037;-66
2021/05/20 03:11:57;;;;;;;1.77;0.80;;;;;;;18.73;58.20;101077.63;5056834;28;20044;-66
2021/05/20 03:14:23;;;;;;;2.35;1.10;;;;;;;18.74;57.99;101071.31;5055632;28;20047;-66
2021/05/20 03:16:48;;;;;;;2.20;0.85;;;;;;;18.73;58.05;101067.00;5039454;28;20026;-66
2021/05/20 03:19:14;;;;;;;1.67;0.95;;;;;;;18.72;57.99;101055.56;5065874;28;20460;-66
2021/05/20 03:21:40;;;;;;;1.98;0.93;;;;;;;18.73;58.23;101061.69;5059542;28;20415;-66
2021/05/20 03:24:06;;;;;;;1.55;0.75;;;;;;;18.73;58.00;101057.19;5044539;28;20056;-66
2021/05/20 03:26:31;;;;;;;1.92;1.05;;;;;;;18.72;58.17;101050.25;5050715;28;20090;-67
2021/05/20 03:28:57;;;;;;;2.42;1.02;;;;;;;18.72;58.17;101036.13;5062863;28;20036;-66
2021/05/20 03:31:22;;;;;;;1.40;0.90;;;;;;;18.72;57.93;101030.81;5044782;28;20442;-66
2021/05/20 03:33:48;;;;;;;2.78;1.02;;;;;;;18.71;58.18;101037.13;5063747;28;20044;-66
2021/05/20 03:36:14;;;;;;;1.90;0.85;;;;;;;18.72;58.08;101038.78;5066094;28;20071;-66
2021/05/20 03:38:39;;;;;;;2.33;1.00;;;;;;;18.72;57.89;101030.81;5047923;28;20052;-66
2021/05/20 03:41:05;;;;;;;1.85;0.75;;;;;;;18.71;57.98;101027.34;5067148;28;20032;-66
2021/05/20 03:43:32;;;;;;;1.85;0.80;;;;;;;18.71;57.79;101006.06;5060444;28;20025;-66
2021/05/20 03:45:57;;;;;;;1.98;1.00;;;;;;;18.71;57.65;100998.09;5050094;28;20069;-66
2021/05/20 03:48:23;;;;;;;2.63;0.95;;;;;;;18.71;57.86;100999.94;5064706;28;20107;-66
2021/05/20 03:50:48;;;;;;;2.65;1.02;;;;;;;18.71;58.16;100986.66;5048456;28;20033;-66
2021/05/20 03:53:14;;;;;;;2.10;0.90;;;;;;;18.71;57.76;100981.34;5063814;28;20340;-66
2021/05/20 03:55:39;;;;;;;2.17;0.80;;;;;;;18.70;57.93;100977.84;5067131;28;20094;-66
2021/05/20 03:58:05;;;;;;;3.47;1.20;;;;;;;18.70;58.01;100966.41;5051204;28;20044;-66
2021/05/20 04:00:30;;;;;;;3.67;1.10;;;;;;;18.70;57.77;100951.28;5072539;28;20038;-66
2021/05/20 04:02:56;;;;;;;2.53;0.90;;;;;;;18.70;58.00;100938.00;5050899;28;20036;-65
2021/05/20 04:05:21;;;;;;;2.47;0.80;;;;;;;18.71;57.83;100930.84;5050351;28;20089;-66
2021/05/20 04:07:47;;;;;;;1.70;0.77;;;;;;;18.70;57.80;100921.22;5070987;28;20430;-65
2021/05/20 04:10:13;;;;;;;2.85;1.00;;;;;;;18.71;58.11;100920.22;5033617;28;20037;-65
2021/05/20 04:12:38;;;;;;;1.80;0.90;;;;;;;18.70;57.93;100913.25;5049587;28;20533;-65
2021/05/20 04:15:05;;;;;;;3.85;1.25;;;;;;;18.70;57.98;100905.28;5053058;28;20087;-64
2021/05/20 04:17:30;;;;;;;1.27;0.70;;;;;;;18.69;58.00;100896.50;5071082;28;20032;-65
2021/05/20 04:19:56;;;;;;;1.92;0.80;;;;;;;18.70;57.83;100899.97;5058418;28;20553;-65
2021/05/20 04:22:21;;;;;;;2.17;0.90;;;;;;;18.69;57.61;100901.81;5034795;28;20029;-66
2021/05/20 04:24:47;;;;;;;2.83;0.90;;;;;;;18.68;57.93;100889.53;5034119;28;20037;-65
2021/05/20 04:27:12;;;;;;;2.33;1.15;;;;;;;18.68;57.90;100888.72;5035497;28;20068;-65
2021/05/20 04:29:38;;;;;;;2.65;0.90;;;;;;;18.67;57.61;100868.47;5051531;28;20086;-65
2021/05/20 04:32:04;;;;;;;1.98;0.80;;;;;;;18.67;57.88;100863.16;5069133;28;20172;-66
2021/05/20 04:34:29;;;;;;;4.50;1.42;;;;;;;18.67;57.87;100844.56;5069973;28;20024;-65
2021/05/20 04:36:55;;;;;;;1.70;0.80;;;;;;;18.66;57.55;100830.44;5071777;28;20033;-65
2021/05/20 04:39:20;;;;;;;2.65;0.90;;;;;;;18.65;57.93;100838.63;5050341;28;20332;-65
2021/05/20 04:41:46;;;;;;;2.50;0.70;;;;;;;18.65;57.59;100806.72;5052469;28;20487;-65
2021/05/20 04:44:11;;;;;;;3.63;1.33;;;;;;;18.64;57.50;100802.44;5034827;28;20053;-65
2021/05/20 04:46:36;;;;;;;3.97;0.80;;;;;;;18.64;57.58;100783.84;5052223;28;20033;-66
2021/05/20 04:49:11;;;;;;;2.65;0.80;;;;;;;18.62;57.62;100789.31;5054198;28;20033;-65
2021/05/20 04:51:36;;;;;;;2.47;1.20;;;;;;;18.62;57.36;100783.13;5064750;28;20460;-66
2021/05/20 04:54:02;;;;;;;2.15;0.80;;;;;;;18.62;57.62;100770.72;5035298;28;20051;-66
2021/05/20 04:56:27;;;;;;;3.05;0.80;;;;;;;18.62;57.25;100759.22;5058201;28;20033;-65
2021/05/20 04:58:53;;;;;;;2.63;0.98;;;;;;;18.61;57.35;100745.13;5061061;28;20033;-65
2021/05/20 05:01:18;;;;;;;3.42;1.17;;;;;;;18.61;57.34;100739.81;5066475;28;20037;-66
2021/05/20 05:03:44;;;;;;;2.28;1.02;;;;;;;18.60;57.54;100719.56;5029425;28;20033;-66
2021/05/20 05:06:09;;;;;;;1.90;0.90;;;;;;;18.60;57.48;100718.75;5046871;28;20409;-66
2021/05/20 05:08:34;;;;;;;2.50;0.90;;;;;;;18.60;57.16;100702.81;5035447;28;20048;-65
2021/05/20 05:11:00;;;;;;;2.33;0.90;;;;;;;18.60;57.21;100689.53;5029514;28;20108;-66
2021/05/20 05:13:25;;;;;;;2.22;0.82;;;;;;;18.59;57.12;100680.75;5060150;28;20036;-66
2021/05/20 05:15:51;;;;;;;2.17;1.17;;;;;;;18.59;57.39;100661.31;5066188;28;20064;-66
2021/05/20 05:18:16;;;;;;;2.53;0.90;;;;;;;18.58;57.41;100641.91;5059241;28;20408;-65
2021/05/20 05:20:42;;;;;;;3.03;1.00;;;;;;;18.59;57.33;100640.88;5068524;28;20040;-65
2021/05/20 05:23:07;;;;;;;2.28;0.82;;;;;;;18.59;57.25;100632.09;5055750;28;20094;-66
2021/05/20 05:25:33;;;;;;;3.85;0.98;;;;;;;18.58;57.10;100617.19;5069395;28;20032;-66
2021/05/20 05:27:58;;;;;;;2.47;1.00;;;;;;;18.58;57.08;100611.88;5052116;28;20602;-66
2021/05/20 05:30:24;;;;;;;2.90;1.15;;;;;;;18.58;57.18;100601.25;5068595;28;20127;-66
2021/05/20 05:32:50;;;;;;;2.33;1.23;;;;;;;18.59;57.36;100602.88;5061691;28;20115;-66
2021/05/20 05:35:15;;;;;;;2.63;0.90;;;;;;;18.56;57.41;100583.66;5040763;28;20456;-65
2021/05/20 05:37:41;;;;;;;2.10;1.00;;;;;;;18.57;57.16;100557.91;5050623;28;20044;-66
2021/05/20 05:40:07;;;;;;;3.53;1.23;;;;;;;18.57;57.24;100541.97;5050407;28;20072;-66
2021/05/20 05:42:33;;;;;;;3.10;1.00;;;;;;;18.55;56.87;100528.91;5067353;28;20439;-65
2021/05/20 05:44:58;;;;;;;2.38;0.80;;;;;;;18.56;57.35;100525.22;5049383;28;20054;-66
2021/05/20 05:47:24;;;;;;;3.45;1.33;;;;;;;18.55;57.12;100507.66;5051103;28;20032;-65
2021/05/20 05:49:51;;;;;;;2.75;0.90;;;;;;;18.55;56.76;100507.66;5047866;28;20475;-65
2021/05/20 05:52:20;;;;;;;2.90;0.93;;;;;;;18.56;56.82;100485.38;5065015;28;20432;-66
2021/05/20 05:54:46;;;;;;;2.00;0.80;;;;;;;18.56;56.96;100455.34;5046156;28;20033;-65
2021/05/20 05:57:11;;;;;;;2.20;0.80;;;;;;;18.56;57.09;100423.47;5036685;28;20045;-66
2021/05/20 05:59:37;;;;;;;2.78;1.23;;;;;;;18.55;56.94;100421.81;5034004;28;20024;-65
2021/05/20 06:02:03;;;;;;;2.90;1.08;;;;;;;18.54;57.05;100410.38;5045631;28;20135;-66
2021/05/20 06:04:30;;;;;;;2.22;0.80;;;;;;;18.55;57.16;100403.22;5067668;28;20108;-65
2021/05/20 06:06:56;;;;;;;3.35;0.88;;;;;;;18.55;57.17;100397.91;5065631;28;20024;-65
2021/05/20 06:09:21;;;;;;;4.55;0.93;;;;;;;18.53;56.92;100392.81;5067406;28;20042;-66
2021/05/20 06:11:47;;;;;;;3.40;1.00;;;;;;;18.52;56.95;100385.84;5049966;28;20364;-66
2021/05/20 06:14:12;;;;;;;3.83;0.90;;;;;;;18.54;56.78;100380.34;5056513;28;20495;-65
2021/05/20 06:16:41;;;;;;;1.80;0.93;;;;;;;18.54;56.86;100369.72;5062028;28;20127;-65
2021/05/20 06:19:14;;;;;;;2.78;0.95;;;;;;;18.54;56.90;100369.72;5047451;28;20039;-66
2021/05/20 06:21:40;;;;;;;3.05;0.88;;;;;;;18.54;57.05;100356.44;5061615;28;20040;-66
2021/05/20 06:24:06;;;;;;;1.85;0.80;;;;;;;18.54;56.79;100356.44;5063282;28;20178;-65
2021/05/20 06:26:32;;;;;;;2.15;0.70;;;;;;;18.53;57.11;100371.56;5037496;28;20037;-66
2021/05/20 06:28:57;;;;;;;3.17;1.05;;;;;;;18.53;56.70;100366.25;5054618;28;20716;-65
2021/05/20 06:31:23;;;;;;;6.22;1.17;;;;;;;18.53;57.01;100338.88;5039211;28;20069;-66
2021/05/20 06:33:50;;;;;;;2.15;0.90;;;;;;;18.53;56.93;100334.38;5049086;28;20033;-66
2021/05/20 06:36:16;;;;;;;5.18;1.10;;;;;;;18.53;57.10;100344.19;5048641;28;20079;-65
2021/05/20 06:38:42;;;;;;;3.45;1.05;;;;;;;18.53;56.73;100329.06;5057178;28;20654;-65
2021/05/20 06:41:09;;;;;;;5.07;1.10;;;;;;;18.53;56.84;100341.53;5071799;28;20060;-66
2021/05/20 06:43:35;;;;;;;4.03;1.20;;;;;;;18.54;56.87;100305.97;5057776;28;20472;-64
2021/05/20 06:46:01;;;;;;;6.03;1.23;;;;;;;18.54;57.35;100282.06;5056774;28;20341;-63
2021/05/20 06:48:26;;;;;;;7.78;1.35;;;;;;;18.53;57.18;100260.00;5051035;28;20044;-65
2021/05/20 06:50:52;;;;;;;8.75;1.35;;;;;;;18.54;57.08;100227.09;5022709;28;20441;-66
2021/05/20 06:53:20;;;;;;;3.63;1.17;;;;;;;18.54;57.45;100224.44;5063445;28;20040;-65
2021/05/20 06:55:46;;;;;;;4.20;0.90;;;;;;;18.56;57.63;100216.28;5030521;28;20434;-65
2021/05/20 07:00:41;;;;;;;7.55;1.60;;;;;;;18.59;57.59;100217.69;5053112;28;20037;-66
2021/05/20 07:03:14;;;;;;;5.70;1.10;;;;;;;18.60;57.64;100224.63;5057307;28;20037;-64
2021/05/20 07:05:40;;;;;;;5.38;1.10;;;;;;;18.60;58.29;100228.13;5063518;28;20036;-65
2021/05/20 07:08:05;;;;;;;9.65;1.00;;;;;;;18.61;58.23;100213.81;5066978;28;20039;-65
2021/05/20 07:10:31;;;;;;;5.53;1.33;;;;;;;18.61;58.27;100197.88;5050065;28;20062;-62
2021/05/20 07:12:58;;;;;;;6.07;1.70;;;;;;;18.63;58.32;100179.09;5065709;28;20040;-66
2021/05/20 07:15:24;;;;;;;6.28;1.20;;;;;;;18.63;58.18;100179.94;5058221;28;20111;-62
2021/05/20 07:17:50;;;;;;;11.27;1.60;;;;;;;18.63;58.46;100160.50;5067511;28;20060;-62
2021/05/20 07:20:15;;;;;;;7.57;1.30;;;;;;;18.64;58.49;100162.97;5067785;28;20121;-61
2021/05/20 07:22:41;;;;;;;7.78;1.90;;;;;;;18.65;58.22;100143.34;5048349;28;20480;-62
2021/05/20 07:25:07;;;;;;;7.20;1.50;;;;;;;18.63;58.15;100145.41;5047958;28;20055;-66
2021/05/20 07:27:34;;;;;;;10.02;1.85;;;;;;;18.65;57.97;100131.91;5066815;28;20032;-62
2021/05/20 07:30:00;;;;;;;6.85;1.40;;;;;;;18.66;58.47;100146.84;5069665;28;20525;-62
2021/05/20 07:32:26;;;;;;;10.40;1.73;;;;;;;18.65;58.54;100113.31;5053061;28;20452;-62
2021/05/20 07:34:53;;;;;;;10.85;1.75;;;;;;;18.65;58.33;100118.63;5071796;28;20574;-62
2021/05/20 07:37:19;;;;;;;6.15;1.33;;;;;;;18.65;58.22;100108.00;5071377;28;20036;-65
2021/05/20 07:39:44;;;;;;;10.93;1.48;;;;;;;18.64;58.22;100115.16;5067903;28;20490;-61
2021/05/20 07:42:10;;;;;;;9.20;1.70;;;;;;;18.64;58.17;100109.03;5049955;28;20446;-62
2021/05/20 07:44:36;;;;;;;11.55;1.63;;;;;;;18.64;57.95;100101.88;5068906;28;20099;-66
2021/05/20 07:47:02;;;;;;;5.07;1.63;;;;;;;18.65;57.77;100092.06;5059823;28;20437;-67
2021/05/20 07:49:28;;;;;;;7.60;2.03;;;;;;;18.65;57.83;100074.28;5037137;28;20034;-65
2021/05/20 07:51:54;;;;;;;8.32;1.63;;;;;;;18.65;58.23;100052.22;5053529;28;20102;-72
2021/05/20 07:54:20;;;;;;;12.15;1.75;;;;;;;18.65;58.06;100038.94;5069291;28;20105;-66
2021/05/20 07:56:45;;;;;;;13.98;2.03;;;;;;;18.64;58.47;100006.25;5070672;28;20075;-62
2021/05/20 07:59:12;;;;;;;7.35;2.00;;;;;;;18.65;58.63;99975.19;5064085;28;20447;-63
2021/05/20 08:01:43;;;;;;;11.38;2.40;;;;;;;18.64;58.45;99974.38;5063163;28;20147;-63
2021/05/20 08:04:12;;;;;;;11.50;2.20;;;;;;;18.64;58.65;99968.25;5064627;28;20107;-63
2021/05/20 08:06:42;;;;;;;13.77;3.17;;;;;;;18.65;58.46;99969.88;5051919;28;20502;-63
2021/05/20 08:09:20;;;;;;;14.65;2.78;;;;;;;18.65;58.75;99983.16;5069435;28;20051;-64
2021/05/20 08:11:46;;;;;;;12.65;3.05;;;;;;;18.64;58.32;99968.25;5022482;28;20032;-64
2021/05/20 08:14:11;;;;;;;13.27;2.95;;;;;;;18.64;58.17;99968.25;5069499;28;20118;-64
2021/05/20 08:16:37;;;;;;;8.13;2.03;;;;;;;18.62;58.59;99962.28;5050906;28;20040;-63
2021/05/20 08:19:02;;;;;;;15.65;2.60;;;;;;;18.60;58.17;99957.16;5045845;28;20036;-63
2021/05/20 08:21:29;;;;;;;11.25;3.58;;;;;;;18.60;58.25;99949.19;5059886;28;20040;-64
2021/05/20 08:23:54;;;;;;;10.75;2.95;;;;;;;18.58;58.03;99942.47;5047933;28;20074;-64
2021/05/20 08:26:24;;;;;;;10.70;2.42;;;;;;;18.57;58.17;99941.66;5048572;28;20436;-64
2021/05/20 08:28:54;;;;;;;18.25;3.00;;;;;;;18.58;57.98;99926.53;5064890;28;20070;-64
2021/05/20 08:31:19;;;;;;;12.55;2.35;;;;;;;18.54;57.90;99892.44;5066100;28;20040;-63
2021/05/20 08:33:45;;;;;;;11.43;2.35;;;;;;;18.54;57.89;99871.19;5045706;28;20032;-63
2021/05/20 08:36:11;;;;;;;12.68;2.20;;;;;;;18.54;58.00;99863.22;5048170;28;20029;-65
2021/05/20 08:38:37;;;;;;;9.10;2.22;;;;;;;18.53;57.95;99837.69;5064406;28;20433;-63
2021/05/20 08:41:03;;;;;;;10.57;2.53;;;;;;;18.53;57.67;99818.28;5064383;28;20144;-63
2021/05/20 08:43:29;;;;;;;11.50;2.10;;;;;;;18.52;57.87;99798.06;5046323;28;20052;-63
2021/05/20 08:45:54;;;;;;;9.68;2.30;;;;;;;18.51;57.92;99786.63;5066281;28;20040;-63
2021/05/20 08:48:20;;;;;;;7.88;2.38;;;;;;;18.51;57.86;99807.88;5023370;28;21176;-63
2021/05/20 08:50:45;;;;;;;8.60;2.22;;;;;;;18.51;57.46;99783.16;5069200;28;20036;-63
2021/05/20 08:53:13;;;;;;;7.18;1.67;;;;;;;18.51;57.58;99764.56;5064672;28;20032;-63
2021/05/20 08:55:38;;;;;;;9.23;2.08;;;;;;;18.50;57.47;99747.81;5068724;28;20487;-64
2021/05/20 08:58:09;;;;;;;7.00;1.90;;;;;;;18.49;57.56;99746.19;5066291;28;20040;-63
2021/05/20 09:00:35;;;;;;;10.65;2.45;;;;;;;18.50;57.75;99733.75;5068185;28;20025;-63
2021/05/20 09:03:07;;;;;;;10.50;2.10;;;;;;;18.47;57.47;99702.31;5069296;28;20036;-63
2021/05/20 09:05:33;;;;;;;9.30;2.58;;;;;;;18.48;57.73;99703.94;5062009;28;20036;-63
2021/05/20 09:08:01;;;;;;;8.82;2.03;;;;;;;18.48;57.37;99696.78;5068302;28;20029;-63
2021/05/20 09:10:29;;;;;;;7.65;1.85;;;;;;;18.47;57.33;99695.16;5029008;28;20373;-64
2021/05/20 09:13:00;;;;;;;6.15;1.90;;;;;;;18.45;57.28;99649.38;5051028;28;20503;-62
2021/05/20 09:15:27;;;;;;;6.47;1.77;;;;;;;18.47;57.73;99675.75;5059373;28;20025;-65
2021/05/20 09:18:00;;;;;;;6.28;1.52;;;;;;;18.45;57.83;99652.03;5046661;28;20040;-64
2021/05/20 09:20:26;;;;;;;9.63;2.05;;;;;;;18.45;57.58;99636.09;5066773;28;20089;-65
2021/05/20 09:23:04;;;;;;;6.78;1.85;;;;;;;18.43;57.62;99632.88;5014848;28;20054;-65
2021/05/20 09:25:32;;;;;;;7.45;1.90;;;;;;;18.44;57.60;99621.22;5061085;28;20361;-65
2021/05/20 09:27:57;;;;;;;7.57;1.95;;;;;;;18.43;57.50;99597.53;5055311;28;20136;-65
2021/05/20 09:30:25;;;;;;;6.85;2.03;;;;;;;18.43;57.51;99593.03;5066195;28;20192;-64
2021/05/20 09:32:57;;;;;;;8.10;2.05;;;;;;;18.43;57.80;99570.97;5068948;28;20037;-65
2021/05/20 09:35:26;;;;;;;5.28;1.58;;;;;;;18.42;57.86;99562.19;5051655;28;20310;-64
2021/05/20 09:37:51;;;;;;;7.35;1.85;;;;;;;18.41;57.65;99557.94;5051255;28;20040;-64
2021/05/20 09:40:20;;;;;;;4.80;1.55;;;;;;;18.41;57.77;99539.34;5051292;28;20097;-66
2021/05/20 09:42:47;;;;;;;7.63;1.83;;;;;;;18.41;57.95;99531.38;5061009;28;20557;-64
2021/05/20 09:45:15;;;;;;;8.80;1.95;;;;;;;18.40;57.97;99527.09;5061663;28;20615;-64
2021/05/20 09:47:42;;;;;;;4.97;1.45;;;;;;;18.41;57.81;99512.78;5055831;28;20024;-66
2021/05/20 09:50:09;;;;;;;4.78;1.60;;;;;;;18.41;57.99;99512.78;5061545;28;20032;-65
2021/05/20 09:52:35;;;;;;;6.97;1.40;;;;;;;18.40;57.99;99500.56;5057329;28;20021;-64
2021/05/20 09:55:15;;;;;;;6.32;1.70;;;;;;;18.39;57.66;99476.88;5048054;28;20043;-64
2021/05/20 09:57:40;;;;;;;4.60;1.50;;;;;;;18.39;58.04;99460.94;5067561;28;20507;-66
2021/05/20 10:00:15;;;;;;;6.00;1.40;;;;;;;18.38;57.54;99460.13;5069279;28;20123;-65
2021/05/20 10:02:44;;;;;;;3.50;1.10;;;;;;;18.37;57.75;99437.28;5065845;28;20048;-66
2021/05/20 10:05:19;;;;;;;5.90;1.50;;;;;;;18.36;57.91;99408.31;5051382;28;20032;-65
2021/05/20 10:07:45;;;;;;;4.15;1.50;;;;;;;18.38;57.99;99395.59;5068451;28;20456;-65
2021/05/20 10:10:11;;;;;;;4.55;1.30;;;;;;;18.37;58.08;99384.19;5050874;28;20098;-65
2021/05/20 10:12:39;;;;;;;5.63;1.85;;;;;;;18.37;58.05;99375.41;5057981;28;20041;-66
2021/05/20 10:15:07;;;;;;;6.20;1.60;;;;;;;18.36;57.93;99366.63;5066420;28;20372;-65
2021/05/20 10:17:34;;;;;;;4.55;1.10;;;;;;;18.36;57.86;99353.34;5041660;28;20121;-65
2021/05/20 10:20:02;;;;;;;5.45;1.23;;;;;;;18.36;57.69;99350.69;5051011;28;20037;-65
2021/05/20 10:22:28;;;;;;;5.68;1.23;;;;;;;18.37;57.85;99356.81;5060249;28;20041;-67
2021/05/20 10:24:55;;;;;;;3.88;0.90;;;;;;;18.37;57.75;99348.84;5062697;28;20045;-66
2021/05/20 10:27:21;;;;;;;5.07;1.38;;;;;;;18.36;57.62;99342.75;5049500;28;20460;-65
2021/05/20 10:29:47;;;;;;;5.03;1.13;;;;;;;18.35;57.98;99327.84;5061820;28;20058;-65
2021/05/20 10:32:17;;;;;;;3.22;1.17;;;;;;;18.35;57.79;99314.56;5050010;28;20395;-63
2021/05/20 10:34:59;;;;;;;4.35;1.42;;;;;;;18.33;57.84;99314.00;5068490;28;20051;-64
2021/05/20 10:37:28;;;;;;;4.35;1.30;;;;;;;18.36;57.75;99296.78;5067657;28;20508;-64
2021/05/20 10:39:54;;;;;;;4.13;1.25;;;;;;;18.36;57.94;99288.84;5057247;28;20540;-64
2021/05/20 10:42:46;;;;;;;4.68;1.42;;;;;;;18.31;57.79;99268.28;5065831;28;20035;-63
2021/05/20 10:45:21;;;;;;;3.47;1.10;;;;;;;18.35;57.79;99264.13;5047254;28;20375;-63
2021/05/20 10:48:02;;;;;;;6.32;1.63;;;;;;;18.33;58.22;99260.09;5050529;28;20128;-64
2021/05/20 10:50:50;;;;;;;4.57;1.20;;;;;;;18.32;58.01;99253.97;5051545;28;20415;-63
2021/05/20 10:53:38;;;;;;;3.80;1.20;;;;;;;18.32;57.88;99237.22;5044367;28;20348;-63
2021/05/20 10:56:23;;;;;;;4.20;1.10;;;;;;;18.32;58.17;99219.47;5067426;28;20319;-63
2021/05/20 10:58:51;;;;;;;3.00;1.27;;;;;;;18.36;58.07;99203.88;5053414;28;20048;-64
2021/05/20 11:01:26;;;;;;;3.13;1.10;;;;;;;18.34;57.99;99196.16;5037944;28;20028;-63
2021/05/20 11:03:59;;;;;;;3.78;1.00;;;;;;;18.36;58.10;99191.41;5060807;28;20228;-65
2021/05/20 11:06:37;;;;;;;3.95;1.10;;;;;;;18.34;58.20;99184.72;5037499;28;20143;-68
2021/05/20 11:09:07;;;;;;;3.53;1.30;;;;;;;18.36;58.06;99183.44;5065523;28;20063;-64
2021/05/20 11:11:32;;;;;;;3.35;1.15;;;;;;;18.37;58.08;99176.28;5065232;28;20037;-64
2021/05/20 11:14:00;;;;;;;5.13;1.60;;;;;;;18.36;58.15;99162.22;5064353;28;20251;-63
2021/05/20 11:16:34;;;;;;;3.95;1.00;;;;;;;18.35;58.20;99162.44;5043123;28;20040;-63
2021/05/20 11:19:28;;;;;;;3.17;0.90;;;;;;;18.31;58.41;99145.38;5058612;28;20388;-63
2021/05/20 11:22:02;;;;;;;4.25;0.98;;;;;;;18.33;58.03;99130.81;5060612;28;20471;-64
2021/05/20 11:24:39;;;;;;;4.03;1.00;;;;;;;18.34;58.10;99118.34;5064849;28;20482;-64
2021/05/20 11:27:06;;;;;;;3.00;1.02;;;;;;;18.35;58.04;99109.34;5040820;28;20037;-64
2021/05/20 11:29:33;;;;;;;8.02;1.63;;;;;;;18.35;58.25;99104.84;5065225;28;20048;-64